Keeneyville, Illinois
Current Conditions -  °F | °C
As of 5:01 PM on Tuesday 25 Nov 2014 (Local Time) from KDPA Reporting Station
Scattered Clouds Scattered Clouds  
Wind Chill: 11°   Ceiling: Unl
Heat Index: 20°   Visibility: 10mi
Dew Point: 14°   Wind: 7mph
Humidity: 78%   Direction: 270°W
Pressure: 30.14"   Gusts: NA
Location:  41.9791°N, 88.0934°W
Report Text: KDPA 252301Z 27006KT 10SM SCT015 M07/M10 A3014 RMK AO2 T10671100
Loading
Personal Weather Stations






























Interactive Weather Map New forecast layout! Learn more

10-Day Weather Forecast

Advertisements
Track Severe Weather on mobile